Aviation Digital Data Service (ADDS)

Output produced by METARs form (1759 UTC 20 January 2019)
found at http://www.aviationweather.gov/metar/data/
 
RJSK 201200Z 29023G34KT 9999 -SHSN FEW015 SCT030 BKN040 M00/M06 Q1004
TAF RJSK 201708Z 2018/2200 29020KT 6000 -SHSN FEW010 BKN020 BKN030 
     TEMPO 2018/2100 29025G35KT 0700 SHSN BLSN FEW003 BKN005 BKN008 
     TEMPO 2100/2106 29025G35KT 1500 -SHSN FEW005 BKN008 BKN015 
     TEMPO 2106/2112 29020G30KT 3000 -SHSN 
     BECMG 2112/2115 33010KT 
     TEMPO 2118/2200 3000 -SHSN
       
RJSA 201249Z 26014KT 240V300 4000 -SHSN FEW001 SCT010 BKN015 M03/M05 Q1001 RMK 1ST001 4ST010 6CU015 A2956
TAF RJSA 201705Z 2018/2200 26018KT 6000 -SHSN FEW010 BKN020 BKN030 
     TEMPO 2018/2100 26020G30KT 0500 SHSN BLSN VV003 
     TEMPO 2100/2112 26020G30KT 0700 SHSN BLSN FEW003 BKN005 BKN008 
     TEMPO 2112/2115 1500 -SHSN FEW005 BKN008 BKN015 
     TEMPO 2121/2200 3000 -SHSN
       
TAF RJEC 201708Z 2018/2200 20009KT 7000 -SHSN FEW008 BKN015 
     TEMPO 2018/2022 0700 SHSN VV005 
     BECMG 2021/2023 33013KT 
     BECMG 2104/2106 18007KT 
     TEMPO 2106/2112 1500 -SHSN FEW004 BKN006 
     TEMPO 2112/2200 3000 -SHSN
       
RJFF 201730Z AUTO 32011KT 9999 FEW046 07/M03 Q1020 NOSIG RMK A3012
TAF RJFF 201705Z 2018/2200 31010KT 9999 FEW030 SCT040 
     BECMG 2109/2112 16005KT 
     BECMG 2115/2118 32010KT
       
TAF RJSF 201711Z 2018/2200 31015KT 9999 FEW020 BKN030 
     TEMPO 2100/2106 31020G30KT 
     BECMG 2109/2112 35004KT 
     TEMPO 2112/2115 3000 -SHSN 
     TEMPO 2115/2121 1500 -SHSN FEW005 BKN008 BKN015
       
ROTM 201756Z AUTO 36011G22KT 7SM OVC027 16/13 A3015 RMK AO2 SLP196 60000 T01610128 10178 20161 50002 $
RJSH 201726Z 29014G24KT 5000 -SHSN FEW012 BKN020 BKN040 M05/M07 Q1003 RMK 2CU012 5CU020 7CU040 A2962
TAF RJCH 201711Z 2018/2200 29018KT 9999 FEW008 BKN015 
     TEMPO 2018/2106 29020G30KT 2000 -SHSN BLSN FEW005 BKN008 
     TEMPO 2106/2112 3000 -SHSN 
     BECMG 2115/2118 30008KT
       
RJOA 201300Z 30006KT 9999 FEW020 04/M04 Q1014
TAF RJOA 201705Z 2018/2200 28011KT 9999 FEW030 SCT045
       
RJOF 201344Z 28006KT 9999 FEW030 BKN050 06/M00 Q1017 RMK 1CU030 5SC050 A3004
RJAH 201700Z 34011KT 9999 FEW030 03/M09 Q1006
TAF RJAH 201705Z 2018/2200 32008KT 9999 FEW030 
     BECMG 2100/2102 28014KT 
     TEMPO 2102/2106 28018G30KT 
     BECMG 2109/2112 22006KT 
     BECMG 2121/2200 34004KT
       
TAF ROIG 201709Z 2018/2200 02018KT 9999 FEW015 BKN035 
     TEMPO 2023/2102 4000 RA
       
RJOI 201655Z 28004KT 9999 SKC 04/M01 A3005 RMK SLP176 T00391011
TAF RJOI 2013/2113 32010KT 9999 SCT025 521009 521909 522806 QNH2998INS 
     FM202000 32010KT 9999 SCT025 521009 521909 522806 QNH3000INS 
     FM210100 30012KT 9999 FEW030 521009 521909 522806 QNH2999INS 
     TEMPO 2101/2104 30012G18KT 
     FM210400 31012G18KT 9999 SCT030 520005 521009 521909 522806 QNH2998INS 
     TEMPO 2104/2108 29015G22KT FEW030 
     FM210900 30008KT 9999 SCT030 520005 521009 521909 522806 QNH2997INS 
     FM211200 27008KT 9999 FEW020 SCT030 520005 521009 521909 522806 QNH2996INS
T02/2021Z T10/2006Z
       
RJAW 201500Z 22006KT 9999 FEW020 19/13 Q1016 RMK 1CU020 A3002
TAF RJOC 201705Z 2018/2200 28012KT 9999 FEW015 SCT025 BKN045 
     TEMPO 2102/2109 26017G28KT
       
RODN 201756Z AUTO 36015G21KT 10SM OVC028 17/11 A3014 RMK AO2 DZE1657RAB1657E08DZB08E15 SLP213 P0000 60000 T01690112 10182 20162 50004 $
TAF AMD RODN 201630Z 2016/2122 36012G18KT 9999 FEW025 SCT030 BKN040 QNH3012INS 
     BECMG 2019/2020 36012G18KT 9999 VCSH SCT020 BKN030 QNH3013INS 
     BECMG 2103/2104 01012KT 9999 NSW SCT030 BKN050 QNH3013INS TX18/2016Z
TN16/2116Z
       
RJFK 201200Z 31007KT 9999 FEW020 05/00 Q1017 RMK 1CU020 A3004
TAF RJFK 201710Z 2018/2200 33012KT 9999 FEW030
       
RJBB 201730Z AUTO 32015KT 9999 NSC 07/M03 Q1015 BECMG 34014KT
TAF RJBB 201705Z 2018/2200 34015KT 9999 FEW020 BKN050 
     BECMG 2022/2100 30015KT
       
RJFR 201700Z 31013KT 9999 FEW030 SCT050 08/M03 Q1018
TAF RJFR 201707Z 2018/2200 29012KT 9999 FEW025 SCT045 
     BECMG 2109/2112 24010KT 
     BECMG 2118/2121 30011KT
       
TAF RJOK 201707Z 2018/2200 35007KT 9999 FEW030
       
RJNK 201700Z 33008KT 300V360 9999 FEW010 SCT020 BKN030 03/M03 Q1015
TAF RJNK 201705Z 2018/2200 36006KT 8000 FEW008 BKN020 
     BECMG 2102/2104 26012KT 
     TEMPO 2106/2109 -TSRAGS FEW008 BKN015 FEW020CB 
     TEMPO 2109/2115 25020G32KT 
     TEMPO 2115/2118 24016G28KT -TSRAGS FEW008 BKN015 FEW020CB 
     TEMPO 2118/2200 -TSRAGS FEW006 BKN012 FEW015CB
       
RJFT 201200Z 00000KT 9999 FEW025 05/02 Q1018
TAF RJFT 201708Z 2018/2200 29005KT 9999 FEW030 
     BECMG 2109/2112 06003KT
       
TAF RJCK 201710Z 2018/2200 30010KT 9999 FEW010 BKN030 
     BECMG 2106/2109 24006KT 
     BECMG 2112/2115 27007KT
       
RJOM 201200Z 28014KT 9999 FEW030 10/02 Q1015
TAF RJOM 201706Z 2018/2200 29013KT 9999 FEW025
       
TAF RJCM 201713Z 2018/2200 19005KT 7000 -SHSN FEW005 BKN015 
     TEMPO 2018/2021 3000 -SHSN 
     BECMG 2020/2022 35011KT 
     TEMPO 2021/2106 0700 SHSN VV005 
     BECMG 2106/2109 21005KT
       
RJOH 201700Z 29004KT 220V330 9999 -SHRA FEW020 BKN025 BKN050 06/M02 Q1017
TAF RJOH 201706Z 2018/2200 27012KT 9999 FEW015 SCT025 BKN045 
     TEMPO 2102/2109 27017G29KT
       
RJSM 201700Z 28015KT 1500 R28/P1800N -SHSN SCT003 BKN005 OVC008 M04/M04 Q1003
RJFM 201200Z 27015KT 9999 FEW030 10/02 Q1015
TAF RJFM 201708Z 2018/2200 28012KT 9999 FEW030
       
RJFU 201200Z 31012KT 9999 BKN035 09/02 Q1019
TAF RJFU 201706Z 2018/2200 34012KT 9999 FEW030 SCT050
       
ROAH 201730Z 36018KT 9999 VCSH FEW025 BKN040 17/11 Q1020 RMK 1CU025 6SC040 A3013
TAF ROAH 201706Z 2018/2200 01018KT 9999 FEW015 BKN035
       
RJCC 201730Z 28010KT 9999 FEW015 M06/M14 Q0999 RMK 1ST015 A2951
TAF RJCC 201705Z 2018/2200 21006KT 9999 FEW020 BKN040 
     BECMG 2021/2023 32010KT 
     TEMPO 2022/2101 0500 SHSN VV003 
     TEMPO 2101/2103 1500 -SHSN FEW005 BKN008 
     TEMPO 2103/2106 0700 SHSN VV005 
     BECMG 2104/2106 21005KT
       
RJAA 201730Z 32009KT 9999 FEW030 04/M07 Q1007 NOSIG RMK 1CU030 A2974
TAF RJAA 201705Z 2018/2200 30012KT 9999 FEW030 
     TEMPO 2023/2106 30016G27KT 
     BECMG 2106/2109 18005KT 
     BECMG 2121/2200 30009KT
       
RJSN 201300Z 31030G40KT 9999 -SHSN FEW030 BKN040 03/M03 Q1010 RMK 2CU030 6CU040 A2984
TAF RJSN 201706Z 2018/2200 30026G36KT 8000 -SHSN FEW010 BKN020 
     TEMPO 2018/2103 4000 -SHSN 
     BECMG 2109/2112 33012KT 
     TEMPO 2112/2118 2000 SHSNRA BR FEW005 BKN008 
     TEMPO 2118/2121 4000 -SHSN FEW005 BKN008
       
TAF RJCB 201707Z 2018/2200 29004KT 9999 FEW020 SCT040 
     BECMG 2023/2101 33016KT 
     TEMPO 2101/2106 33020G30KT 
     BECMG 2106/2109 33005KT 
     BECMG 2115/2118 17005KT
       
RJFO 201300Z 32005KT 9999 FEW030 BKN045 BKN050 09/02 Q1016
TAF RJFO 201706Z 2018/2200 30012KT 9999 FEW030 SCT045 
     TEMPO 2102/2106 29015G25KT 
     BECMG 2109/2112 26006KT 
     BECMG 2121/2200 30007KT
       
RJOB 201200Z 31005KT 270V350 9999 FEW025 05/M01 Q1013
TAF RJOB 201707Z 2018/2200 28008KT 9999 FEW020 SCT045
       
TAF RJOO 201706Z 2018/2200 32007KT 9999 FEW025 BKN040
       
RJFS 201700Z 27005KT 9999 FEW030 04/01 Q1020
TAF RJFS 201707Z 2018/2200 30006KT 9999 FEW030
       
RJSS 201200Z 30004KT 260V360 9999 -SHRA FEW010 BKN020 03/00 Q1003
TAF RJSS 201709Z 2018/2200 29018KT 9999 FEW020 SCT050 
     TEMPO 2021/2109 29025G35KT 
     BECMG 2109/2112 26005KT
       
RJTL 201347Z 31010G21KT 250V010 9999 FEW030 08/M03 Q1004 RMK 1CU030 A2967
RJSY 201200Z 30021G40KT 9999 -SHSN FEW015 SCT030 BKN040 02/M04 Q1007
RJOT 201200Z 29014KT 9999 FEW020 SCT050 06/M01 Q1014
TAF RJOT 201707Z 2018/2200 27015KT 9999 FEW020 SCT050
       
RJTE 201510Z 06010KT 360V060 9999 FEW030 BKN045 09/01 Q1005 RMK 2CU030 6SC045 A2969
RJOS 201700Z 35010KT 9999 FEW030 BKN050 07/M00 Q1015
RJTT 201730Z 34022G33KT 9999 FEW040 BKN070 06/M06 Q1006 NOSIG RMK 1SC040 5AC070 A2973
TAF RJTT 201705Z 2018/2200 33018KT 9999 FEW030 
     TEMPO 2018/2021 33022G32KT 
     BECMG 2103/2105 12006KT 
     BECMG 2115/2118 23014KT 
     BECMG 2121/2200 30008KT
       
RJOR 201200Z 31028KT 9999 FEW025 SCT040 BKN060 07/M00 Q1014
RJNT 201200Z 32009KT 8000 -SHRA FEW005 SCT010 BKN020 07/05 Q1013
TAF RJNT 201705Z 2018/2200 19005KT 6000 -SHSN FEW008 BKN015 
     TEMPO 2018/2021 4000 -SHRASN BR 
     TEMPO 2021/2103 3000 -SHSN FEW005 BKN008 
     TEMPO 2118/2200 3000 SHRASNGS BR FEW005 BKN008 FEW020CB
       
RJDC 201200Z VRB02KT 9999 FEW035 SCT050 08/01 Q1016
RJTY 201756Z AUTO 02012KT 10SM CLR 02/M07 A2978 RMK AO2 SLP092 T00241070 10062 20001 53015 FZRANO $
TAF RJTY 201300Z 2013/2119 03009KT 9999 FEW030 QNH2965INS 
     TEMPO 2015/2018 02012G18KT SCT050 
     BECMG 2105/2106 12012KT 9999 SKC QNH2975INS TX11/2105Z TNM03/2020Z LAST NO
AMDS AFT 2013 NEXT 2021
       
ROYN 201700Z AUTO 02027KT 5000 -RA BR SCT014 BKN025 BKN029 18/16 Q1021
RORY 201700Z AUTO 35020KT 9999 FEW031 OVC034 17/10 Q1020